createdAt,value
2022-10-14T00:00:01.286Z,47.40
2022-10-14T00:10:00.134Z,51.60
2022-10-14T00:20:00.151Z,45.90
2022-10-14T00:30:01.016Z,38.70
2022-10-14T00:40:01.062Z,39.60
2022-10-14T00:50:01.067Z,40.00
2022-10-14T01:00:01.013Z,43.80
2022-10-14T01:10:00.986Z,40.10
2022-10-14T01:20:01.831Z,37.20
2022-10-14T01:30:00.134Z,35.80
2022-10-14T01:40:01.090Z,42.50
2022-10-14T01:50:00.976Z,30.60
2022-10-14T02:00:01.108Z,34.30
2022-10-14T02:10:00.996Z,36.40
2022-10-14T02:20:01.257Z,33.10
2022-10-14T02:30:01.056Z,36.10
2022-10-14T02:40:01.211Z,38.90
2022-10-14T02:50:01.252Z,32.40
2022-10-14T03:00:01.460Z,37.90
2022-10-14T03:10:00.914Z,145.00
2022-10-14T03:20:01.147Z,45.10
2022-10-14T03:30:01.161Z,26.10
2022-10-14T03:40:00.964Z,26.40
2022-10-14T03:50:01.281Z,25.00
2022-10-14T04:00:01.018Z,29.90
2022-10-14T04:10:01.042Z,33.00
2022-10-14T04:20:00.150Z,33.10
2022-10-14T04:30:01.001Z,31.80
2022-10-14T04:40:01.133Z,31.00
2022-10-14T04:50:01.294Z,35.40
2022-10-14T05:00:01.008Z,34.20
2022-10-14T05:10:00.997Z,41.00
2022-10-14T05:20:01.289Z,40.70
2022-10-14T05:30:01.227Z,41.90
2022-10-14T05:40:01.018Z,35.60
2022-10-14T05:50:00.140Z,34.90
2022-10-14T06:00:00.147Z,38.50
2022-10-14T06:10:00.992Z,29.70
2022-10-14T06:20:01.242Z,36.80
2022-10-14T06:30:00.130Z,31.30
2022-10-14T06:40:01.006Z,41.90
2022-10-14T06:50:01.239Z,38.90
2022-10-14T07:00:00.993Z,42.20
2022-10-14T07:10:01.174Z,38.10
2022-10-14T07:20:01.528Z,36.80
2022-10-14T07:30:01.026Z,40.50
2022-10-14T07:40:01.236Z,46.00
2022-10-14T07:50:01.509Z,39.50
2022-10-14T08:00:00.156Z,38.80
2022-10-14T08:10:00.978Z,39.10
2022-10-14T08:20:01.071Z,40.90
2022-10-14T08:30:01.020Z,46.20
2022-10-14T08:40:01.178Z,41.80
2022-10-14T08:50:01.083Z,36.90
2022-10-14T09:00:01.074Z,35.70
2022-10-14T09:10:00.130Z,43.80
2022-10-14T09:20:01.290Z,67.30
2022-10-14T09:30:02.176Z,36.80
2022-10-14T09:40:00.173Z,54.50
2022-10-14T09:50:01.093Z,47.60
2022-10-14T10:00:01.751Z,46.40
2022-10-14T10:10:01.172Z,45.90
2022-10-14T10:20:00.988Z,52.30
2022-10-14T10:30:01.324Z,64.10
2022-10-14T10:40:01.278Z,55.20
2022-10-14T10:50:01.222Z,70.00
2022-10-14T11:10:00.169Z,79.70
2022-10-14T11:20:01.066Z,72.90
2022-10-14T11:30:00.132Z,80.10
2022-10-14T11:40:01.004Z,207.90
2022-10-14T11:50:00.161Z,370.90
2022-10-14T12:00:00.177Z,461.60
2022-10-14T12:10:01.184Z,438.20
2022-10-14T12:20:01.281Z,418.50
2022-10-14T12:30:00.124Z,254.40
2022-10-14T12:40:01.333Z,293.60
2022-10-14T12:50:01.009Z,166.90
2022-10-14T13:00:01.066Z,125.70
2022-10-14T13:10:01.038Z,113.90
2022-10-14T13:20:00.177Z,184.00
2022-10-14T13:30:00.138Z,287.00
2022-10-14T13:40:01.550Z,307.90
2022-10-14T13:50:00.997Z,238.60
2022-10-14T14:10:01.186Z,90.70
2022-10-14T14:20:01.264Z,79.90
2022-10-14T14:30:00.967Z,81.20
2022-10-14T14:40:01.000Z,74.70
2022-10-14T14:50:25.220Z,75.80
2022-10-14T15:10:00.137Z,66.90
2022-10-14T15:20:01.254Z,64.40
2022-10-14T15:30:00.160Z,49.40
2022-10-14T15:40:00.157Z,52.00
2022-10-14T15:50:01.115Z,54.50
2022-10-14T16:10:01.253Z,45.60
2022-10-14T16:20:01.136Z,49.10
2022-10-14T16:30:00.146Z,40.00
2022-10-14T16:40:01.412Z,41.10
2022-10-14T16:50:01.095Z,40.90
2022-10-14T17:00:00.266Z,36.30
2022-10-14T17:10:01.433Z,54.40
2022-10-14T17:20:01.984Z,43.90
2022-10-14T17:30:01.532Z,44.10
2022-10-14T17:40:01.131Z,36.20
2022-10-14T17:50:00.159Z,29.30
2022-10-14T18:00:01.070Z,47.10
2022-10-14T18:10:01.228Z,39.80
2022-10-14T18:20:01.279Z,31.20
2022-10-14T18:30:01.004Z,24.30
2022-10-14T18:40:00.146Z,23.10
2022-10-14T19:00:01.591Z,21.30
2022-10-14T19:10:01.303Z,27.70
2022-10-14T19:20:01.531Z,25.80
2022-10-14T19:30:01.341Z,26.50
2022-10-14T19:40:01.538Z,26.40
2022-10-14T19:50:03.069Z,23.40
2022-10-14T20:00:02.275Z,24.60
2022-10-14T20:10:02.632Z,27.70
2022-10-14T20:20:00.834Z,21.40
2022-10-14T20:30:02.705Z,20.20
2022-10-14T20:40:01.060Z,35.90
2022-10-14T20:50:03.203Z,30.50
2022-10-14T21:00:01.296Z,25.60
2022-10-14T21:10:01.287Z,34.70
2022-10-14T21:20:01.059Z,29.10
2022-10-14T21:30:00.262Z,31.90
2022-10-14T21:40:01.033Z,27.80
2022-10-14T21:50:01.117Z,29.30
2022-10-14T22:00:01.053Z,35.50
2022-10-14T22:10:01.068Z,39.10
2022-10-14T22:20:00.963Z,35.20
2022-10-14T22:30:01.309Z,37.50
2022-10-14T22:40:03.530Z,36.40
2022-10-14T22:50:02.745Z,34.90
2022-10-14T23:10:01.216Z,41.80
2022-10-14T23:20:00.187Z,37.20
2022-10-14T23:30:02.341Z,35.00
2022-10-14T23:40:01.040Z,34.30
2022-10-14T23:50:01.100Z,43.30
